Time;durP1;ratioP1;P1;durP2;ratioP2;P2;SDS_P1;SDS_P2;PMS_P1;PMS_P2;Temp;Humidity;BMP_temperature;BMP_pressure;BME280_temperature;BME280_humidity;BME280_pressure;Samples;Min_cycle;Max_cycle;Signal;HPM_P1;HPM_P2
2022/06/29 00:00:32;;;;;;;4.10;3.05;;;;;;;16.99;79.45;101574.16;10381346;28;20057;-77
2022/06/29 00:05:33;;;;;;;2.58;2.30;;;;;;;16.85;81.25;101569.88;10375433;28;20053;-76
2022/06/29 00:10:35;;;;;;;2.92;2.72;;;;;;;16.80;80.07;101562.31;10375860;28;20046;-77
2022/06/29 00:15:37;;;;;;;3.70;2.83;;;;;;;16.73;81.63;101561.53;10375646;28;20482;-76
2022/06/29 00:20:37;;;;;;;7.93;2.70;;;;;;;16.72;80.19;101549.75;10374972;28;20034;-76
2022/06/29 00:25:38;;;;;;;5.50;2.63;;;;;;;16.60;80.04;101556.16;10375272;28;20041;-76
2022/06/29 00:30:38;;;;;;;3.97;2.63;;;;;;;16.59;80.96;101549.00;10378156;28;20029;-76
2022/06/29 00:35:38;;;;;;;5.18;2.88;;;;;;;16.49;81.84;101550.31;10377429;28;20034;-76
2022/06/29 00:40:39;;;;;;;2.83;2.20;;;;;;;16.40;82.31;101534.41;10374993;28;20034;-76
2022/06/29 00:45:39;;;;;;;3.60;3.22;;;;;;;16.39;80.17;101536.31;10390049;28;20026;-76
2022/06/29 00:50:40;;;;;;;6.38;4.07;;;;;;;16.36;81.88;101534.00;10374430;28;20065;-76
2022/06/29 00:55:41;;;;;;;5.30;2.95;;;;;;;16.31;82.71;101538.47;10373445;28;20030;-76
2022/06/29 01:00:43;;;;;;;11.85;4.38;;;;;;;16.28;83.23;101532.38;10374593;28;20104;-76
2022/06/29 01:05:44;;;;;;;3.58;3.33;;;;;;;16.20;84.77;101531.81;10385458;28;20034;-76
2022/06/29 01:10:44;;;;;;;15.63;3.38;;;;;;;16.17;84.23;101529.50;10390179;28;20041;-76
2022/06/29 01:15:45;;;;;;;6.07;3.78;;;;;;;16.09;84.60;101527.06;10374109;28;20053;-76
2022/06/29 01:20:45;;;;;;;6.10;3.53;;;;;;;16.04;87.40;101528.53;10374152;28;20120;-76
2022/06/29 01:25:50;;;;;;;5.65;3.78;;;;;;;16.01;86.52;101528.97;10373961;28;20061;-76
2022/06/29 01:30:50;;;;;;;4.13;3.83;;;;;;;16.03;86.75;101520.56;10389569;28;20076;-76
2022/06/29 01:35:50;;;;;;;6.68;3.80;;;;;;;15.98;85.17;101526.66;10397855;28;20084;-76
2022/06/29 01:40:51;;;;;;;16.90;3.58;;;;;;;15.93;82.79;101521.03;10381865;28;20038;-76
2022/06/29 01:45:51;;;;;;;5.68;3.72;;;;;;;15.89;83.61;101528.00;10382299;28;20390;-76
2022/06/29 01:50:52;;;;;;;5.55;4.20;;;;;;;15.86;83.20;101522.09;10380050;28;20030;-77
2022/06/29 01:55:52;;;;;;;8.75;4.30;;;;;;;15.84;83.18;101525.06;10381042;28;20056;-76
2022/06/29 02:00:52;;;;;;;4.10;3.80;;;;;;;15.72;87.57;101515.88;10396558;28;20132;-76
2022/06/29 02:05:53;;;;;;;5.50;4.25;;;;;;;15.72;89.37;101507.69;10386170;28;20393;-76
2022/06/29 02:10:53;;;;;;;4.45;3.10;;;;;;;15.70;85.26;101510.63;10380549;28;20061;-76
2022/06/29 02:15:54;;;;;;;3.85;3.53;;;;;;;15.67;85.54;101502.03;10380479;28;20034;-77
2022/06/29 02:20:54;;;;;;;4.75;3.92;;;;;;;15.55;87.26;101494.50;10379026;28;20581;-76
2022/06/29 02:25:54;;;;;;;4.18;3.78;;;;;;;15.55;88.57;101489.03;10379938;28;20046;-76
2022/06/29 02:36:14;;;;;;;7.95;5.07;;;;;;;15.41;92.18;101492.88;10386370;28;20037;-77
2022/06/29 02:41:14;;;;;;;12.15;4.88;;;;;;;15.35;94.20;101482.81;10379148;28;20042;-76
2022/06/29 02:46:15;;;;;;;3.85;3.55;;;;;;;15.42;90.56;101477.31;10378327;28;20033;-76
2022/06/29 02:51:15;;;;;;;5.57;5.05;;;;;;;15.36;88.49;101476.28;10378940;28;20057;-76
2022/06/29 02:56:15;;;;;;;6.07;5.53;;;;;;;15.31;88.64;101468.72;10378573;28;20042;-75
2022/06/29 03:01:16;;;;;;;6.80;4.68;;;;;;;15.22;89.40;101469.19;10376990;28;20394;-76
2022/06/29 03:06:16;;;;;;;5.28;4.80;;;;;;;15.18;87.08;101462.50;10389275;28;20038;-76
2022/06/29 03:11:17;;;;;;;5.25;4.70;;;;;;;15.10;88.95;101458.94;10378498;28;20034;-76
2022/06/29 03:16:17;;;;;;;5.40;4.93;;;;;;;15.03;92.55;101458.13;10377999;28;20073;-76
2022/06/29 03:21:17;;;;;;;9.60;5.68;;;;;;;15.02;92.29;101452.88;10377439;28;20041;-76
2022/06/29 03:26:18;;;;;;;5.78;5.28;;;;;;;15.02;89.56;101450.16;10377688;28;20033;-76
2022/06/29 03:31:19;;;;;;;6.05;5.20;;;;;;;14.96;89.89;101451.84;10377011;28;20053;-76
2022/06/29 03:36:20;;;;;;;9.35;5.82;;;;;;;14.95;88.68;101447.44;10377574;28;20038;-76
2022/06/29 03:41:20;;;;;;;8.13;6.15;;;;;;;14.96;92.45;101443.66;10376921;28;20030;-76
2022/06/29 03:46:21;;;;;;;6.30;5.70;;;;;;;14.99;91.90;101445.13;10376746;28;20080;-76
2022/06/29 03:51:21;;;;;;;7.57;6.38;;;;;;;15.04;93.68;101440.72;10376688;28;20045;-77
2022/06/29 03:56:22;;;;;;;6.85;6.00;;;;;;;15.10;95.44;101444.47;10376193;28;20046;-76
2022/06/29 04:01:22;;;;;;;5.47;5.07;;;;;;;15.20;93.70;101444.03;10374355;28;20077;-76
2022/06/29 04:06:22;;;;;;;7.28;5.97;;;;;;;15.23;96.40;101436.25;10383215;28;20107;-76
2022/06/29 04:16:42;;;;;;;7.75;6.32;;;;;;;15.42;96.85;101434.50;10375698;28;20034;-76
2022/06/29 04:21:42;;;;;;;12.15;6.80;;;;;;;15.54;95.38;101432.75;10373967;28;20073;-77
2022/06/29 04:26:43;;;;;;;10.75;5.95;;;;;;;15.62;96.66;101436.28;10376158;28;20038;-76
2022/06/29 04:31:43;;;;;;;6.28;5.78;;;;;;;15.73;96.60;101427.44;10375162;28;20061;-76
2022/06/29 04:36:44;;;;;;;8.80;7.03;;;;;;;15.89;95.76;101428.81;10381736;28;20056;-76
2022/06/29 04:41:45;;;;;;;5.88;5.38;;;;;;;16.55;93.50;101416.53;10375655;28;20477;-77
2022/06/29 04:46:45;;;;;;;7.50;6.93;;;;;;;17.64;90.23;101409.41;10374566;28;20046;-76
2022/06/29 04:51:46;;;;;;;7.32;6.63;;;;;;;18.40;85.01;101407.00;10374361;28;20373;-75
2022/06/29 04:56:46;;;;;;;5.88;5.25;;;;;;;18.87;81.55;101407.03;10310966;28;20041;-71
2022/06/29 05:01:48;;;;;;;8.77;5.25;;;;;;;19.45;80.69;101395.06;10372052;28;20397;-72
2022/06/29 05:06:49;;;;;;;6.68;6.18;;;;;;;19.91;78.51;101387.69;10374478;28;20040;-72
2022/06/29 05:11:49;;;;;;;5.82;5.30;;;;;;;20.24;77.28;101386.06;10372480;28;20040;-71
2022/06/29 05:16:49;;;;;;;5.20;4.70;;;;;;;20.61;76.11;101389.13;10374168;28;20105;-73
2022/06/29 05:21:50;;;;;;;5.68;5.15;;;;;;;20.99;74.81;101382.78;10373423;28;20092;-74
2022/06/29 05:26:50;;;;;;;7.20;5.82;;;;;;;21.09;71.64;101374.69;10371949;28;20030;-74
2022/06/29 05:31:50;;;;;;;8.23;5.13;;;;;;;21.43;70.04;101379.22;10373395;28;20429;-79
2022/06/29 05:36:51;;;;;;;6.15;5.50;;;;;;;21.89;68.48;101377.78;10372792;28;20124;-80
2022/06/29 05:41:51;;;;;;;8.90;5.82;;;;;;;22.20;66.90;101362.34;10374692;28;20474;-80
2022/06/29 05:46:52;;;;;;;5.15;4.75;;;;;;;22.43;66.08;101360.28;10374375;28;20045;-80
2022/06/29 05:51:52;;;;;;;7.05;5.93;;;;;;;22.67;64.73;101360.75;10372534;28;20038;-80
2022/06/29 05:56:52;;;;;;;5.40;5.00;;;;;;;23.19;64.07;101357.97;10373396;28;20068;-80
2022/06/29 06:01:53;;;;;;;5.60;5.10;;;;;;;23.52;61.17;101358.63;10371160;28;20058;-80
2022/06/29 06:06:53;;;;;;;10.25;5.45;;;;;;;23.89;62.93;101354.81;10381526;28;20077;-80
2022/06/29 06:11:54;;;;;;;7.47;5.40;;;;;;;24.29;58.74;101353.16;10376412;28;20711;-80
2022/06/29 06:16:54;;;;;;;6.15;5.25;;;;;;;24.87;61.73;101366.63;10391711;28;20022;-79
2022/06/29 06:21:55;;;;;;;7.32;5.78;;;;;;;25.44;59.90;101355.03;10387460;28;20034;-80
2022/06/29 06:26:55;;;;;;;5.18;4.78;;;;;;;25.96;58.97;101350.81;10380163;28;20034;-80
2022/06/29 06:31:56;;;;;;;4.63;4.22;;;;;;;26.06;53.42;101360.97;10380023;28;20454;-80
2022/06/29 06:36:56;;;;;;;4.85;4.40;;;;;;;26.34;53.55;101353.78;10407763;28;20030;-79
2022/06/29 06:41:56;;;;;;;5.00;4.50;;;;;;;26.16;53.62;101362.84;10381235;28;20370;-79
2022/06/29 06:46:57;;;;;;;4.15;3.75;;;;;;;26.74;52.47;101356.47;10379516;28;20046;-80
2022/06/29 06:51:57;;;;;;;6.00;5.05;;;;;;;27.31;50.21;101355.50;10378285;28;20073;-80
2022/06/29 06:56:57;;;;;;;5.95;4.43;;;;;;;28.07;51.76;101347.13;10394339;28;20398;-79
2022/06/29 07:01:58;;;;;;;6.43;3.92;;;;;;;27.96;49.07;101349.25;10378180;28;20049;-79
2022/06/29 07:06:58;;;;;;;11.63;4.57;;;;;;;28.66;48.77;101344.69;10392392;28;20038;-79
2022/06/29 07:11:59;;;;;;;6.40;3.72;;;;;;;29.00;45.75;101343.41;10379568;28;20028;-79
2022/06/29 07:16:59;;;;;;;13.02;4.25;;;;;;;28.79;45.68;101341.06;10379052;28;20044;-80
2022/06/29 07:21:59;;;;;;;6.65;3.95;;;;;;;28.93;44.76;101339.09;10378161;28;20473;-80
2022/06/29 07:27:00;;;;;;;4.20;3.78;;;;;;;29.09;41.99;101342.41;10393360;28;20117;-80
2022/06/29 07:32:00;;;;;;;4.25;3.67;;;;;;;28.92;42.24;101342.19;10375870;28;20092;-80
2022/06/29 07:37:01;;;;;;;5.82;3.53;;;;;;;29.14;42.23;101338.69;10377804;28;20045;-79
2022/06/29 07:42:01;;;;;;;12.60;4.85;;;;;;;29.11;40.96;101328.16;10377197;28;20034;-79
2022/06/29 07:47:02;;;;;;;7.25;3.17;;;;;;;29.81;43.15;101335.22;10377562;28;20044;-79
2022/06/29 07:52:03;;;;;;;8.27;3.33;;;;;;;29.79;38.71;101329.13;10374942;28;20030;-78
2022/06/29 07:57:03;;;;;;;4.53;3.13;;;;;;;30.15;39.57;101329.00;10376659;28;20040;-79
2022/06/29 08:02:04;;;;;;;3.65;2.10;;;;;;;30.05;39.11;101343.25;10375991;28;20057;-79
2022/06/29 08:07:04;;;;;;;2.65;2.45;;;;;;;30.00;39.38;101337.81;10380227;28;20099;-79
2022/06/29 08:12:05;;;;;;;6.55;3.05;;;;;;;30.48;38.96;101332.34;10383223;28;20092;-78
2022/06/29 08:17:06;;;;;;;4.53;2.42;;;;;;;31.02;39.23;101329.44;10375403;28;20037;-79
2022/06/29 08:22:06;;;;;;;3.13;2.70;;;;;;;31.56;37.28;101327.22;10374392;28;20509;-79
2022/06/29 08:27:06;;;;;;;3.57;2.70;;;;;;;31.28;36.17;101333.09;10375537;28;20034;-79
2022/06/29 08:32:07;;;;;;;3.20;2.65;;;;;;;30.88;37.86;101323.97;10375165;28;20746;-78
2022/06/29 08:37:07;;;;;;;5.65;3.05;;;;;;;31.37;38.67;101313.56;10388164;28;20042;-78
2022/06/29 08:42:08;;;;;;;8.20;3.20;;;;;;;31.83;34.67;101323.25;10375895;28;20065;-78
2022/06/29 08:47:09;;;;;;;3.58;3.28;;;;;;;31.58;36.92;101310.09;10378950;28;20508;-78
2022/06/29 08:52:10;;;;;;;5.75;2.83;;;;;;;31.94;35.84;101313.38;10373355;28;20030;-79
2022/06/29 08:57:11;;;;;;;2.60;2.38;;;;;;;31.64;37.20;101311.56;10389474;28;20040;-79
2022/06/29 09:02:11;;;;;;;7.45;2.42;;;;;;;32.28;35.51;101302.41;10374349;28;20053;-78
2022/06/29 09:07:13;;;;;;;1.67;1.63;;;;;;;32.41;34.18;101306.97;10380355;28;20060;-78
2022/06/29 09:12:17;;;;;;;2.65;2.50;;;;;;;32.51;32.68;101314.22;10373559;28;20500;-78
2022/06/29 09:17:18;;;;;;;1.75;1.73;;;;;;;31.39;33.76;101307.63;10373558;28;20061;-79
2022/06/29 09:22:18;;;;;;;4.20;2.38;;;;;;;30.58;34.97;101306.09;10374206;28;20410;-78
2022/06/29 09:27:18;;;;;;;3.50;2.38;;;;;;;31.17;34.73;101297.38;10372977;28;20554;-78
2022/06/29 09:32:19;;;;;;;2.42;2.20;;;;;;;31.77;34.90;101298.53;10373988;28;20092;-78
2022/06/29 09:37:21;;;;;;;7.93;1.85;;;;;;;31.72;33.18;101297.56;10389239;28;20038;-79
2022/06/29 09:42:26;;;;;;;2.03;1.92;;;;;;;32.30;31.26;101303.72;10372507;28;20029;-79
2022/06/29 09:47:26;;;;;;;2.63;1.98;;;;;;;31.88;33.60;101297.91;10372116;28;20387;-78
2022/06/29 09:52:27;;;;;;;3.10;1.83;;;;;;;32.28;31.75;101306.03;10390372;28;20041;-78
2022/06/29 09:57:31;;;;;;;10.60;2.08;;;;;;;32.12;30.70;101291.72;10380670;28;20064;-78
2022/06/29 10:02:34;;;;;;;6.65;1.90;;;;;;;32.26;32.05;101299.09;10379388;28;20108;-78
2022/06/29 10:07:39;;;;;;;2.70;2.22;;;;;;;32.97;32.81;101295.69;10389367;28;20042;-78
2022/06/29 10:18:36;;;;;;;3.42;2.55;;;;;;;33.46;32.63;101290.34;10379953;28;20034;-78
2022/06/29 10:23:49;;;;;;;3.03;1.83;;;;;;;34.29;34.37;101286.56;10379358;28;20037;-78
2022/06/29 10:28:50;;;;;;;2.03;1.92;;;;;;;34.29;32.43;101283.75;10394272;28;20501;-79
2022/06/29 10:33:50;;;;;;;8.63;2.33;;;;;;;34.62;34.51;101285.66;10379987;28;20045;-78
2022/06/29 10:38:53;;;;;;;2.50;2.40;;;;;;;34.44;33.09;101283.06;10387353;28;20287;-78
2022/06/29 10:43:53;;;;;;;3.60;2.70;;;;;;;34.57;32.87;101278.28;10379665;28;20259;-79
2022/06/29 10:49:19;;;;;;;4.47;2.17;;;;;;;35.00;33.76;101268.38;10379625;28;20501;-78
2022/06/29 10:54:27;;;;;;;2.00;1.90;;;;;;;35.53;30.74;101271.22;10378946;28;20259;-79
2022/06/29 10:59:37;;;;;;;2.03;1.83;;;;;;;35.27;31.31;101272.47;10378219;28;20077;-80
2022/06/29 11:04:38;;;;;;;2.05;1.75;;;;;;;36.29;31.55;101264.44;10397323;28;20052;-77
2022/06/29 11:20:22;;;;;;;2.03;1.90;;;;;;;34.24;28.98;101264.31;10377910;28;20493;-78
2022/06/29 11:25:22;;;;;;;1.95;1.83;;;;;;;33.92;30.40;101272.44;10392993;28;20065;-79
2022/06/29 11:30:23;;;;;;;2.70;1.60;;;;;;;33.25;31.94;101263.13;10376305;28;20033;-78
2022/06/29 11:35:25;;;;;;;1.85;1.75;;;;;;;33.70;30.80;101268.03;10376524;28;20278;-78
2022/06/29 11:40:34;;;;;;;1.08;1.08;;;;;;;33.48;31.54;101272.00;10376111;28;20026;-78
2022/06/29 11:45:45;;;;;;;1.80;1.70;;;;;;;32.98;32.48;101266.47;10376158;28;20508;-79
2022/06/29 11:50:47;;;;;;;5.57;2.42;;;;;;;32.08;31.46;101268.34;10377476;28;20041;-78
2022/06/29 11:55:48;;;;;;;4.75;1.73;;;;;;;32.70;32.84;101252.91;10376642;28;20073;-78
2022/06/29 12:00:48;;;;;;;5.93;2.58;;;;;;;33.03;32.66;101260.66;10374564;28;20485;-78
2022/06/29 12:05:58;;;;;;;2.50;2.30;;;;;;;33.03;34.27;101263.47;10384522;28;20485;-78
2022/06/29 12:10:58;;;;;;;1.67;1.58;;;;;;;32.94;33.64;101263.50;10361666;28;20437;-78
2022/06/29 12:15:59;;;;;;;2.58;1.85;;;;;;;32.33;34.39;101271.41;10375403;28;20058;-78
2022/06/29 12:20:59;;;;;;;1.73;1.63;;;;;;;33.15;33.25;101269.13;10375170;28;20061;-78
2022/06/29 12:26:00;;;;;;;2.92;1.92;;;;;;;34.08;33.91;101260.53;10374807;28;20125;-78
2022/06/29 12:31:00;;;;;;;6.47;2.83;;;;;;;34.49;34.10;101263.16;10390787;28;20033;-78
2022/06/29 12:36:01;;;;;;;5.78;2.42;;;;;;;33.85;32.46;101260.09;10381691;28;20478;-78
2022/06/29 12:41:01;;;;;;;5.77;2.27;;;;;;;33.25;33.58;101268.75;10362777;28;20141;-78
2022/06/29 12:46:01;;;;;;;10.10;1.90;;;;;;;32.78;34.30;101266.06;10390271;28;20337;-78
2022/06/29 12:51:02;;;;;;;3.80;2.35;;;;;;;32.59;33.53;101274.09;10373612;28;20100;-77
2022/06/29 12:56:03;;;;;;;2.35;1.60;;;;;;;32.46;33.25;101269.56;10390222;28;20116;-78
2022/06/29 13:01:03;;;;;;;2.80;2.58;;;;;;;32.96;34.27;101261.19;10372723;28;20508;-77
2022/06/29 13:06:05;;;;;;;5.75;1.88;;;;;;;33.18;34.38;101262.84;10381163;28;20093;-77
2022/06/29 13:11:05;;;;;;;4.70;2.22;;;;;;;32.94;34.02;101269.09;10380265;28;20040;-78
2022/06/29 13:16:07;;;;;;;8.50;1.77;;;;;;;32.80;33.71;101272.19;10374638;28;20049;-78
2022/06/29 13:21:08;;;;;;;2.35;2.00;;;;;;;32.79;33.76;101266.88;10372759;28;20429;-78
2022/06/29 13:26:08;;;;;;;3.53;1.90;;;;;;;32.76;33.09;101265.59;10373886;28;20045;-78
2022/06/29 13:31:12;;;;;;;5.53;2.50;;;;;;;32.71;34.96;101256.56;10384904;28;20275;-78
2022/06/29 13:36:12;;;;;;;2.85;1.85;;;;;;;32.61;34.57;101255.78;10400686;28;20370;-78
2022/06/29 13:41:15;;;;;;;10.15;1.35;;;;;;;32.55;35.11;101259.13;10399462;28;20034;-78
2022/06/29 13:46:16;;;;;;;9.10;2.42;;;;;;;32.61;35.67;101250.19;10381554;28;20092;-78
2022/06/29 13:51:16;;;;;;;3.60;1.92;;;;;;;32.56;35.36;101253.16;10380610;28;20445;-78
2022/06/29 13:56:16;;;;;;;3.90;2.47;;;;;;;32.48;35.24;101254.03;10396821;28;20481;-78
2022/06/29 14:01:17;;;;;;;6.13;1.80;;;;;;;32.51;35.36;101244.13;10379807;28;20315;-78
2022/06/29 14:06:17;;;;;;;5.07;2.30;;;;;;;32.28;34.68;101235.16;10386111;28;20176;-77
2022/06/29 14:11:18;;;;;;;2.42;1.80;;;;;;;32.39;35.26;101237.25;10384112;28;20045;-78
2022/06/29 14:16:18;;;;;;;4.47;1.77;;;;;;;32.23;36.46;101232.50;10380926;28;20037;-78
2022/06/29 14:21:19;;;;;;;6.30;2.67;;;;;;;32.03;36.17;101231.28;10379158;28;20034;-78
2022/06/29 14:26:19;;;;;;;1.52;1.42;;;;;;;31.66;36.24;101231.69;10380261;28;20038;-78
2022/06/29 14:31:19;;;;;;;2.07;1.80;;;;;;;31.76;36.87;101227.72;10378285;28;20105;-78
2022/06/29 14:36:20;;;;;;;4.13;2.05;;;;;;;31.65;36.97;101224.47;10385344;28;20279;-78
2022/06/29 14:41:21;;;;;;;3.28;2.08;;;;;;;32.07;36.74;101221.91;10381098;28;20433;-78
2022/06/29 14:46:22;;;;;;;4.47;2.23;;;;;;;31.74;32.42;101222.44;10379312;28;20045;-77
2022/06/29 14:51:22;;;;;;;3.17;1.70;;;;;;;31.55;36.04;101224.78;10378277;28;20330;-78
2022/06/29 14:56:22;;;;;;;8.55;2.85;;;;;;;31.88;36.88;101221.44;10361490;28;20088;-78
2022/06/29 15:01:23;;;;;;;2.90;2.08;;;;;;;31.94;37.42;101220.94;10378854;28;20057;-77
2022/06/29 15:06:23;;;;;;;2.17;1.97;;;;;;;31.73;36.99;101220.81;10398645;28;20104;-77
2022/06/29 15:11:26;;;;;;;11.80;2.33;;;;;;;31.45;37.75;101214.75;10380715;28;20275;-78
2022/06/29 15:16:26;;;;;;;2.30;1.85;;;;;;;31.16;37.91;101207.03;10393309;28;20603;-78
2022/06/29 15:21:26;;;;;;;2.13;2.03;;;;;;;30.82;38.69;101202.22;10376685;28;20026;-78
2022/06/29 15:26:27;;;;;;;4.95;2.30;;;;;;;30.40;38.44;101196.22;10377132;28;20397;-77
2022/06/29 15:31:31;;;;;;;1.83;1.73;;;;;;;30.24;38.49;101209.78;10377159;28;20073;-78
2022/06/29 15:41:51;;;;;;;3.13;1.55;;;;;;;29.81;38.86;101195.63;10377503;28;20065;-78
2022/06/29 15:46:51;;;;;;;5.55;2.22;;;;;;;29.52;38.72;101194.13;10377168;28;20061;-77
2022/06/29 15:51:52;;;;;;;2.35;2.10;;;;;;;29.33;38.99;101190.72;10376533;28;20037;-77
2022/06/29 15:56:52;;;;;;;7.28;2.47;;;;;;;29.02;39.46;101185.03;10379393;28;20133;-77
2022/06/29 16:01:53;;;;;;;2.72;2.38;;;;;;;28.86;39.47;101192.91;10361980;28;20050;-78
2022/06/29 16:06:53;;;;;;;2.65;1.73;;;;;;;28.80;39.54;101183.84;10383423;28;20433;-77
2022/06/29 16:12:13;;;;;;;2.72;2.03;;;;;;;28.45;39.87;101174.31;10376463;28;20390;-77
2022/06/29 16:17:14;;;;;;;2.70;1.73;;;;;;;28.20;40.22;101176.44;10388734;28;20075;-77
2022/06/29 16:22:15;;;;;;;4.10;1.90;;;;;;;27.80;40.74;101173.34;10374678;28;20056;-77
2022/06/29 16:27:16;;;;;;;8.07;1.85;;;;;;;27.32;41.21;101178.34;10390327;28;20029;-77
2022/06/29 16:32:17;;;;;;;5.65;2.00;;;;;;;26.51;41.52;101181.16;10357467;28;20034;-77
2022/06/29 16:37:17;;;;;;;3.10;1.65;;;;;;;25.89;43.79;101178.28;10378887;28;20037;-77
2022/06/29 16:42:17;;;;;;;3.92;2.25;;;;;;;25.59;43.02;101173.00;10390759;28;20121;-77
2022/06/29 16:47:18;;;;;;;5.95;2.95;;;;;;;25.31;42.68;101175.47;10390051;28;20088;-77
2022/06/29 16:52:18;;;;;;;1.70;1.60;;;;;;;25.10;42.61;101172.00;10373436;28;20037;-77
2022/06/29 16:57:18;;;;;;;2.90;1.73;;;;;;;24.94;43.23;101171.28;10373319;28;20477;-77
2022/06/29 17:02:19;;;;;;;4.72;2.25;;;;;;;24.68;43.20;101167.00;10373238;28;20782;-77
2022/06/29 17:07:19;;;;;;;1.98;1.77;;;;;;;24.55;42.97;101166.53;10378790;28;20042;-76
2022/06/29 17:12:20;;;;;;;11.63;1.95;;;;;;;24.44;42.84;101162.16;10390100;28;20393;-77
2022/06/29 17:17:23;;;;;;;1.85;1.75;;;;;;;24.35;43.70;101161.06;10356406;28;20058;-76
2022/06/29 17:22:24;;;;;;;3.28;2.25;;;;;;;24.33;43.04;101160.50;10374168;28;20062;-77
2022/06/29 17:27:24;;;;;;;1.58;1.35;;;;;;;24.27;43.93;101162.47;10355848;28;20463;-77
2022/06/29 17:32:24;;;;;;;5.30;2.50;;;;;;;24.17;43.38;101165.28;10373101;28;20484;-77
2022/06/29 17:37:25;;;;;;;8.05;1.92;;;;;;;24.09;43.66;101160.31;10373217;28;20088;-77
2022/06/29 17:42:32;;;;;;;1.67;1.58;;;;;;;23.96;44.04;101160.91;10389066;28;20359;-77
2022/06/29 17:47:32;;;;;;;1.55;1.33;;;;;;;23.88;44.98;101159.56;10373802;28;20041;-77
2022/06/29 17:52:32;;;;;;;2.47;2.30;;;;;;;23.79;44.37;101151.00;10372387;28;20037;-77
2022/06/29 17:57:33;;;;;;;3.60;2.13;;;;;;;23.67;45.89;101153.19;10372634;28;20042;-77
2022/06/29 18:02:33;;;;;;;2.33;1.75;;;;;;;23.52;46.43;101153.25;10388527;28;20050;-77
2022/06/29 18:07:34;;;;;;;4.25;1.42;;;;;;;23.42;46.32;101154.06;10379488;28;20104;-77
2022/06/29 18:12:34;;;;;;;2.50;1.92;;;;;;;23.30;46.50;101154.34;10390083;28;20456;-77
2022/06/29 18:17:35;;;;;;;2.15;1.95;;;;;;;23.15;47.02;101154.34;10380495;28;20133;-77
2022/06/29 18:22:35;;;;;;;1.30;1.20;;;;;;;23.03;46.56;101165.66;10382934;28;20489;-76
2022/06/29 18:27:36;;;;;;;5.20;2.15;;;;;;;22.92;46.41;101166.72;10403415;28;20037;-76
2022/06/29 18:32:36;;;;;;;3.53;2.08;;;;;;;22.79;46.44;101157.03;10386060;28;20117;-76
2022/06/29 18:37:37;;;;;;;3.50;2.25;;;;;;;22.69;46.32;101160.59;10326611;28;20082;-73
2022/06/29 18:42:38;;;;;;;6.30;1.75;;;;;;;22.61;46.43;101155.59;10356300;28;20061;-73
2022/06/29 18:47:38;;;;;;;4.30;1.63;;;;;;;22.45;47.45;101163.00;10357642;28;20036;-71
2022/06/29 18:52:38;;;;;;;2.70;1.80;;;;;;;22.36;47.45;101163.78;10376607;28;20042;-70
2022/06/29 18:57:40;;;;;;;2.55;1.70;;;;;;;22.21;47.10;101165.41;10377635;28;20041;-70
2022/06/29 19:02:41;;;;;;;1.52;1.13;;;;;;;22.06;47.51;101157.03;10376090;28;20144;-71
2022/06/29 19:07:42;;;;;;;12.80;1.92;;;;;;;21.92;47.99;101158.59;10360564;28;20137;-71
2022/06/29 19:12:43;;;;;;;1.65;1.33;;;;;;;21.74;49.36;101162.63;10376685;28;20025;-72
2022/06/29 19:17:43;;;;;;;2.35;1.90;;;;;;;21.56;49.15;101161.94;10392780;28;20037;-71
2022/06/29 19:22:44;;;;;;;3.78;2.55;;;;;;;21.38;49.59;101151.34;10375336;28;20033;-72
2022/06/29 19:27:45;;;;;;;4.38;2.30;;;;;;;21.20;49.63;101155.28;10391930;28;20069;-73
2022/06/29 19:32:45;;;;;;;2.13;2.00;;;;;;;21.02;50.49;101159.25;10376549;28;20524;-71
2022/06/29 19:37:45;;;;;;;1.92;1.83;;;;;;;20.79;52.74;101162.34;10368558;28;20041;-72
2022/06/29 19:42:46;;;;;;;4.90;2.38;;;;;;;20.60;52.82;101159.09;10350849;28;20083;-72
2022/06/29 19:47:46;;;;;;;5.78;2.88;;;;;;;20.43;54.45;101165.50;10335500;28;20117;-70
2022/06/29 19:52:47;;;;;;;8.10;2.38;;;;;;;20.27;56.50;101184.81;10350535;28;20058;-71
2022/06/29 19:57:47;;;;;;;4.13;2.47;;;;;;;20.16;55.75;101192.06;10317700;28;20038;-72
2022/06/29 20:02:47;;;;;;;2.42;2.22;;;;;;;19.99;59.08;101205.88;10333476;28;20403;-72
2022/06/29 20:07:48;;;;;;;2.88;2.20;;;;;;;19.83;61.70;101201.25;10335737;28;20038;-68
2022/06/29 20:12:49;;;;;;;4.93;2.63;;;;;;;19.72;61.10;101212.09;10334434;28;20038;-68
2022/06/29 20:17:49;;;;;;;15.57;2.38;;;;;;;19.59;60.03;101206.91;10333419;28;20038;-69
2022/06/29 20:22:51;;;;;;;3.40;2.40;;;;;;;19.45;63.71;101205.56;10316675;28;20133;-70
2022/06/29 20:27:51;;;;;;;6.25;2.95;;;;;;;19.31;63.28;101209.72;10333210;28;20040;-70
2022/06/29 20:32:52;;;;;;;4.20;3.20;;;;;;;19.18;67.28;101199.88;10332169;28;20470;-71
2022/06/29 20:37:53;;;;;;;6.30;3.00;;;;;;;19.07;66.15;101201.59;10332673;28;20030;-70
2022/06/29 20:42:53;;;;;;;6.50;3.95;;;;;;;18.96;67.19;101186.84;10333309;28;20117;-69
2022/06/29 20:47:56;;;;;;;7.30;3.22;;;;;;;18.88;67.95;101186.41;10334210;28;20137;-70
2022/06/29 20:52:57;;;;;;;6.82;3.05;;;;;;;18.81;67.32;101184.66;10318758;28;20034;-70
2022/06/29 20:57:57;;;;;;;5.53;2.95;;;;;;;18.71;71.76;101184.44;10334495;28;20034;-69
2022/06/29 21:02:57;;;;;;;6.55;4.10;;;;;;;18.67;71.46;101183.25;10348115;28;20105;-67
2022/06/29 21:07:58;;;;;;;7.78;4.05;;;;;;;18.60;69.92;101177.06;10347901;28;20458;-68
2022/06/29 21:12:58;;;;;;;8.85;3.58;;;;;;;18.50;69.60;101166.72;10331545;28;20037;-69
2022/06/29 21:17:59;;;;;;;8.48;4.88;;;;;;;18.44;69.62;101165.00;10370067;28;20038;-77
2022/06/29 21:22:59;;;;;;;4.43;4.05;;;;;;;18.40;70.78;101179.41;10372265;28;20137;-77
2022/06/29 21:28:01;;;;;;;5.95;3.20;;;;;;;18.36;68.95;101174.41;10389363;28;20393;-77
2022/06/29 21:33:02;;;;;;;6.32;4.53;;;;;;;18.33;67.97;101174.06;10372010;28;20549;-77
2022/06/29 21:38:03;;;;;;;6.00;3.38;;;;;;;18.28;68.37;101168.47;10372225;28;20038;-78
2022/06/29 21:43:04;;;;;;;5.05;4.22;;;;;;;18.25;67.31;101171.69;10373487;28;20037;-79
2022/06/29 21:48:04;;;;;;;5.95;4.43;;;;;;;18.18;67.69;101179.22;10357445;28;20037;-78
2022/06/29 21:53:05;;;;;;;9.02;4.28;;;;;;;18.15;67.73;101175.03;10380366;28;20030;-79
2022/06/29 21:58:05;;;;;;;6.65;4.65;;;;;;;18.09;67.89;101176.00;10396467;28;20041;-79
2022/06/29 22:03:06;;;;;;;7.10;4.05;;;;;;;18.05;68.63;101167.44;10379343;28;20065;-79
2022/06/29 22:08:06;;;;;;;14.65;4.35;;;;;;;18.04;69.42;101167.69;10396532;28;20081;-79
2022/06/29 22:13:06;;;;;;;9.10;5.00;;;;;;;17.98;70.78;101158.50;10380854;28;20041;-79
2022/06/29 22:18:07;;;;;;;5.28;4.80;;;;;;;18.01;69.59;101163.53;10379135;28;20033;-79
2022/06/29 22:23:07;;;;;;;8.20;4.57;;;;;;;18.01;69.70;101165.44;10380298;28;20037;-79
2022/06/29 22:28:08;;;;;;;3.90;3.60;;;;;;;17.96;69.50;101163.41;10379394;28;20034;-79
2022/06/29 22:33:09;;;;;;;9.77;4.70;;;;;;;17.97;69.84;101154.13;10395333;28;20568;-79
2022/06/29 22:38:09;;;;;;;5.40;4.93;;;;;;;17.94;69.58;101146.38;10389759;28;20108;-79
2022/06/29 22:43:10;;;;;;;13.77;6.93;;;;;;;17.87;72.04;101138.28;10380044;28;20034;-79
2022/06/29 22:48:10;;;;;;;7.28;5.03;;;;;;;17.87;73.57;101130.06;10394812;28;20343;-79
2022/06/29 22:53:11;;;;;;;12.55;5.22;;;;;;;17.91;73.70;101124.13;10377655;28;20042;-79
2022/06/29 22:58:11;;;;;;;15.18;5.90;;;;;;;17.89;81.72;101122.44;10379759;28;20426;-79
2022/06/29 23:03:11;;;;;;;14.40;7.30;;;;;;;17.92;78.89;101125.78;10376005;28;20485;-79
2022/06/29 23:08:12;;;;;;;9.75;8.13;;;;;;;17.89;79.91;101125.16;10390887;28;20041;-79
2022/06/29 23:13:13;;;;;;;15.80;8.48;;;;;;;17.83;82.47;101101.47;10377762;28;20370;-78
2022/06/29 23:18:13;;;;;;;10.90;8.30;;;;;;;17.84;83.49;101105.06;10386289;28;20101;-79
2022/06/29 23:23:14;;;;;;;20.23;9.35;;;;;;;17.85;82.33;101109.47;10398167;28;20033;-79
2022/06/29 23:28:16;;;;;;;15.13;9.20;;;;;;;17.84;79.87;101107.81;10389520;28;20454;-79
2022/06/29 23:33:16;;;;;;;10.10;8.70;;;;;;;17.78;80.70;101093.16;10376229;28;20073;-79